Time;durP1;ratioP1;P1;durP2;ratioP2;P2;SDS_P1;SDS_P2;PMS_P1;PMS_P2;Temp;Humidity;BMP_temperature;BMP_pressure;BME280_temperature;BME280_humidity;BME280_pressure;Samples;Min_cycle;Max_cycle;Signal;HPM_P1;HPM_P2
2022/12/31 00:00:32;;;;;;;4.47;1.50;;;;;;;;;;5030523;28;20029;-65
2022/12/31 00:02:58;;;;;;;5.10;1.50;;;;;;;;;;5030116;28;20022;-65
2022/12/31 00:05:23;;;;;;;3.30;0.93;;;;;;;;;;5030450;28;20029;-68
2022/12/31 00:07:48;;;;;;;3.03;0.90;;;;;;;;;;5030489;28;20108;-66
2022/12/31 00:10:13;;;;;;;3.35;1.15;;;;;;;;;;5030586;28;20465;-66
2022/12/31 00:12:38;;;;;;;3.15;1.10;;;;;;;;;;5030189;28;20091;-67
2022/12/31 00:15:03;;;;;;;4.30;1.23;;;;;;;;;;5030105;28;20021;-66
2022/12/31 00:17:29;;;;;;;5.33;1.50;;;;;;;;;;5030500;28;20473;-66
2022/12/31 00:19:54;;;;;;;3.83;1.20;;;;;;;;;;5030262;28;20807;-66
2022/12/31 00:22:19;;;;;;;3.60;1.00;;;;;;;;;;5030494;28;20419;-66
2022/12/31 00:24:44;;;;;;;3.23;1.10;;;;;;;;;;5030365;28;20018;-66
2022/12/31 00:27:09;;;;;;;3.73;1.43;;;;;;;;;;5030247;28;20511;-66
2022/12/31 00:29:34;;;;;;;6.17;1.30;;;;;;;;;;5030180;28;20025;-66
2022/12/31 00:32:00;;;;;;;3.78;1.30;;;;;;;;;;5030012;28;20476;-66
2022/12/31 00:34:25;;;;;;;4.00;1.40;;;;;;;;;;5030236;28;20029;-66
2022/12/31 00:36:51;;;;;;;4.60;1.38;;;;;;;;;;5029887;28;20029;-66
2022/12/31 00:39:16;;;;;;;5.25;1.30;;;;;;;;;;5030328;28;20013;-67
2022/12/31 00:41:42;;;;;;;4.55;1.38;;;;;;;;;;5030155;28;20344;-65
2022/12/31 00:44:08;;;;;;;3.97;1.52;;;;;;;;;;5029820;28;20029;-66
2022/12/31 00:46:33;;;;;;;5.50;1.35;;;;;;;;;;5032799;28;20029;-65
2022/12/31 00:48:58;;;;;;;4.20;1.60;;;;;;;;;;5033695;28;20033;-65
2022/12/31 00:51:26;;;;;;;3.60;1.42;;;;;;;;;;5033493;28;20017;-65
2022/12/31 00:53:51;;;;;;;4.32;1.50;;;;;;;;;;5033522;28;20361;-66
2022/12/31 00:56:17;;;;;;;4.57;1.67;;;;;;;;;;5033346;28;20021;-66
2022/12/31 00:58:43;;;;;;;4.03;1.33;;;;;;;;;;5033470;28;20029;-65
2022/12/31 01:01:20;;;;;;;3.50;1.30;;;;;;;;;;5033441;28;20444;-66
2022/12/31 01:03:46;;;;;;;3.85;1.40;;;;;;;;;;5033287;28;20480;-66
2022/12/31 01:06:11;;;;;;;4.18;1.52;;;;;;;;;;5033366;28;20072;-65
2022/12/31 01:08:37;;;;;;;5.03;1.70;;;;;;;;;;5033388;28;20112;-65
2022/12/31 01:11:18;;;;;;;4.80;1.60;;;;;;;;;;5033359;28;20033;-65
2022/12/31 01:13:48;;;;;;;4.97;1.50;;;;;;;;;;5032788;28;20053;-66
2022/12/31 01:16:14;;;;;;;3.88;1.50;;;;;;;;;;5033417;28;20064;-66
2022/12/31 01:18:39;;;;;;;4.25;1.30;;;;;;;;;;5033633;28;20053;-67
2022/12/31 01:21:05;;;;;;;3.58;1.30;;;;;;;;;;5033364;28;20021;-66
2022/12/31 01:23:31;;;;;;;;;;;;;;;;;;5033679;28;20068;-66
2022/12/31 01:25:58;;;;;;;4.57;1.50;;;;;;;;;;5032719;28;19906;-66
2022/12/31 01:28:23;;;;;;;4.13;1.60;;;;;;;;;;5029670;28;20155;-66
2022/12/31 01:30:48;;;;;;;4.23;1.57;;;;;;;;;;5032902;28;20490;-66
2022/12/31 01:33:13;;;;;;;4.13;1.58;;;;;;;;;;5032652;28;20443;-66
2022/12/31 01:35:38;;;;;;;4.20;1.60;;;;;;;;;;5032923;28;20084;-67
2022/12/31 01:38:03;;;;;;;3.95;1.40;;;;;;;;;;5032817;28;20025;-66
2022/12/31 01:40:29;;;;;;;5.35;1.70;;;;;;;;;;5032567;28;20032;-65
2022/12/31 01:42:57;;;;;;;4.73;1.50;;;;;;;;;;5032523;28;20100;-66
2022/12/31 01:45:23;;;;;;;4.05;1.60;;;;;;;;;;5033087;28;20022;-66
2022/12/31 01:47:53;;;;;;;4.57;1.70;;;;;;;;;;5032886;28;20032;-66
2022/12/31 01:50:23;;;;;;;6.20;1.90;;;;;;;;;;5033369;28;20029;-65
2022/12/31 01:52:51;;;;;;;5.10;1.75;;;;;;;;;;5033071;28;20025;-66
2022/12/31 01:55:39;;;;;;;5.63;1.85;;;;;;;;;;5032795;28;20028;-66
2022/12/31 01:58:10;;;;;;;4.68;1.70;;;;;;;;;;5028662;28;20373;-66
2022/12/31 02:00:35;;;;;;;4.30;1.67;;;;;;;;;;5032596;28;20017;-66
2022/12/31 02:03:01;;;;;;;4.53;1.70;;;;;;;;;;5032106;28;20017;-66
2022/12/31 02:05:33;;;;;;;4.47;1.90;;;;;;;;;;5032187;28;20025;-66
2022/12/31 02:07:58;;;;;;;4.28;1.77;;;;;;;;;;5032442;28;20229;-66
2022/12/31 02:10:23;;;;;;;5.43;1.80;;;;;;;;;;5032644;28;20052;-66
2022/12/31 02:12:49;;;;;;;4.93;1.93;;;;;;;;;;5031730;28;20990;-66
2022/12/31 02:15:14;;;;;;;4.40;1.50;;;;;;;;;;5032351;28;20432;-67
2022/12/31 02:17:47;;;;;;;5.22;1.60;;;;;;;;;;5032047;28;20017;-64
2022/12/31 02:20:18;;;;;;;4.15;1.58;;;;;;;;;;5031951;28;20075;-64
2022/12/31 02:22:52;;;;;;;6.05;1.75;;;;;;;;;;5032073;28;20013;-64
2022/12/31 02:25:33;;;;;;;4.53;1.40;;;;;;;;;;5031999;28;20021;-64
2022/12/31 02:28:08;;;;;;;4.45;1.48;;;;;;;;;;5032178;28;20024;-64
2022/12/31 02:30:35;;;;;;;5.47;1.38;;;;;;;;;;5031835;28;20020;-64
2022/12/31 02:33:08;;;;;;;5.38;1.80;;;;;;;;;;5031805;28;20057;-64
2022/12/31 02:35:36;;;;;;;4.85;1.60;;;;;;;;;;5032199;28;20017;-65
2022/12/31 02:38:04;;;;;;;4.43;1.73;;;;;;;;;;5032095;28;20461;-65
2022/12/31 02:40:31;;;;;;;4.03;1.52;;;;;;;;;;5031725;28;20017;-65
2022/12/31 02:42:57;;;;;;;4.47;1.70;;;;;;;;;;5031173;28;20112;-65
2022/12/31 02:45:26;;;;;;;7.18;1.73;;;;;;;;;;5031548;28;20097;-65
2022/12/31 02:48:01;;;;;;;5.22;1.63;;;;;;;;;;5031431;28;20480;-65
2022/12/31 02:50:54;;;;;;;4.28;1.60;;;;;;;;;;5032111;28;20096;-63
2022/12/31 02:53:24;;;;;;;4.30;1.55;;;;;;;;;;5031333;28;20064;-64
2022/12/31 02:55:54;;;;;;;4.32;1.85;;;;;;;;;;5031173;28;20380;-63
2022/12/31 03:02:12;;;;;;;4.68;1.63;;;;;;;;;;5031659;28;20049;-65
2022/12/31 03:04:30;;;;;;;5.57;1.75;;;;;;;;;;5031180;28;20024;-65
2022/12/31 03:06:36;;;;;;;4.20;1.60;;;;;;;;;;5031125;28;20029;-65
2022/12/31 03:09:13;;;;;;;4.50;1.70;;;;;;;;;;5030460;28;20418;-64
2022/12/31 03:14:21;;;;;;;4.30;1.70;;;;;;;;;;5030874;28;20104;-65
2022/12/31 03:16:47;;;;;;;4.65;1.70;;;;;;;;;;5031013;28;20037;-67
2022/12/31 03:22:27;;;;;;;5.68;1.70;;;;;;;;;;5028589;28;20247;-64
2022/12/31 03:27:56;;;;;;;4.80;1.73;;;;;;;;;;5030973;28;20067;-64
2022/12/31 03:30:22;;;;;;;5.15;1.90;;;;;;;;;;5031011;28;20053;-65
2022/12/31 03:32:48;;;;;;;4.30;1.73;;;;;;;;;;5030428;28;20028;-65
2022/12/31 03:35:14;;;;;;;5.82;1.70;;;;;;;;;;5030603;28;20424;-64
2022/12/31 03:37:39;;;;;;;5.03;1.92;;;;;;;;;;5030861;28;20533;-64
2022/12/31 03:40:06;;;;;;;5.30;1.77;;;;;;;;;;5030662;28;20113;-64
2022/12/31 03:42:31;;;;;;;4.05;1.60;;;;;;;;;;5030354;28;20469;-66
2022/12/31 03:44:56;;;;;;;3.93;1.60;;;;;;;;;;5030700;28;20033;-64
2022/12/31 03:47:21;;;;;;;5.00;1.70;;;;;;;;;;5030791;28;20022;-66
2022/12/31 03:49:46;;;;;;;4.40;1.70;;;;;;;;;;5030810;28;20518;-64
2022/12/31 03:52:11;;;;;;;5.70;1.45;;;;;;;;;;5030423;28;20021;-66
2022/12/31 03:54:37;;;;;;;4.13;1.40;;;;;;;;;;5030804;28;20025;-64
2022/12/31 03:57:02;;;;;;;4.30;1.58;;;;;;;;;;5030473;28;20381;-64
2022/12/31 03:59:27;;;;;;;3.73;1.27;;;;;;;;;;5031041;28;20083;-65
2022/12/31 04:01:52;;;;;;;3.90;1.50;;;;;;;;;;5031082;28;20477;-65
2022/12/31 04:04:17;;;;;;;4.05;1.40;;;;;;;;;;5029993;28;20025;-64
2022/12/31 04:06:42;;;;;;;4.63;1.50;;;;;;;;;;5030578;28;20068;-65
2022/12/31 04:09:07;;;;;;;4.43;1.40;;;;;;;;;;5030389;28;20480;-65
2022/12/31 04:11:33;;;;;;;4.40;1.55;;;;;;;;;;5030950;28;20017;-65
2022/12/31 04:13:58;;;;;;;3.57;1.27;;;;;;;;;;5030127;28;20087;-65
2022/12/31 04:16:23;;;;;;;3.83;1.40;;;;;;;;;;5030510;28;20457;-64
2022/12/31 04:18:48;;;;;;;4.90;1.85;;;;;;;;;;5030105;28;20028;-63
2022/12/31 04:21:13;;;;;;;3.42;1.30;;;;;;;;;;5032945;28;20063;-65
2022/12/31 04:23:38;;;;;;;4.78;1.50;;;;;;;;;;5034463;28;20377;-66
2022/12/31 04:26:04;;;;;;;3.95;1.38;;;;;;;;;;5034340;28;20124;-64
2022/12/31 04:28:29;;;;;;;3.43;1.30;;;;;;;;;;5034128;28;20030;-65
2022/12/31 04:30:54;;;;;;;4.45;1.40;;;;;;;;;;5033868;28;20049;-64
2022/12/31 04:33:19;;;;;;;3.72;1.50;;;;;;;;;;5033870;28;20032;-65
2022/12/31 04:35:44;;;;;;;4.50;1.50;;;;;;;;;;5034092;28;20029;-66
2022/12/31 04:38:09;;;;;;;4.68;1.40;;;;;;;;;;5033716;28;20532;-64
2022/12/31 04:41:15;;;;;;;5.32;1.70;;;;;;;;;;5034247;28;20028;-66
2022/12/31 04:43:19;;;;;;;4.40;1.50;;;;;;;;;;5033687;28;20404;-65
2022/12/31 04:45:45;;;;;;;4.38;1.70;;;;;;;;;;5033859;28;20025;-66
2022/12/31 04:48:10;;;;;;;3.47;1.25;;;;;;;;;;5033416;28;20109;-66
2022/12/31 04:50:35;;;;;;;3.80;1.20;;;;;;;;;;5033771;28;20021;-65
2022/12/31 04:53:00;;;;;;;4.22;1.35;;;;;;;;;;5033458;28;20036;-64
2022/12/31 04:55:25;;;;;;;3.40;1.13;;;;;;;;;;5033974;28;20448;-64
2022/12/31 04:57:50;;;;;;;3.38;1.00;;;;;;;;;;5033478;28;20025;-64
2022/12/31 05:00:15;;;;;;;4.13;0.93;;;;;;;;;;5033795;28;20021;-65
2022/12/31 05:02:41;;;;;;;2.97;1.00;;;;;;;;;;5033404;28;20417;-65
2022/12/31 05:05:06;;;;;;;2.38;0.82;;;;;;;;;;5033508;28;20148;-65
2022/12/31 05:07:31;;;;;;;3.50;0.97;;;;;;;;;;5033570;28;20021;-65
2022/12/31 05:09:56;;;;;;;3.88;1.02;;;;;;;;;;5033511;28;20943;-65
2022/12/31 05:12:21;;;;;;;2.25;0.90;;;;;;;;;;5033283;28;20064;-64
2022/12/31 05:14:46;;;;;;;2.60;0.90;;;;;;;;;;5033070;28;20057;-64
2022/12/31 05:17:12;;;;;;;2.72;0.90;;;;;;;;;;5032780;28;20481;-64
2022/12/31 05:19:37;;;;;;;3.35;1.10;;;;;;;;;;5033264;28;20041;-64
2022/12/31 05:24:46;;;;;;;2.30;0.90;;;;;;;;;;5033326;28;20384;-64
2022/12/31 05:27:11;;;;;;;2.73;1.00;;;;;;;;;;5033014;28;20021;-64
2022/12/31 05:29:36;;;;;;;2.20;0.77;;;;;;;;;;5033219;28;20032;-65
2022/12/31 05:32:01;;;;;;;2.88;0.95;;;;;;;;;;5031854;28;20091;-65
2022/12/31 05:34:26;;;;;;;3.30;1.10;;;;;;;;;;5032590;28;20037;-63
2022/12/31 05:36:51;;;;;;;2.50;0.80;;;;;;;;;;5032758;28;20061;-65
2022/12/31 05:39:16;;;;;;;2.60;0.73;;;;;;;;;;5032934;28;20026;-65
2022/12/31 05:41:42;;;;;;;1.98;0.73;;;;;;;;;;5032904;28;20096;-66
2022/12/31 05:44:07;;;;;;;2.38;0.70;;;;;;;;;;5032423;28;20041;-64
2022/12/31 05:46:32;;;;;;;1.85;0.65;;;;;;;;;;5032408;28;20253;-63
2022/12/31 05:48:57;;;;;;;2.40;0.80;;;;;;;;;;5032524;28;20044;-64
2022/12/31 05:51:22;;;;;;;1.50;0.50;;;;;;;;;;5032799;28;20087;-64
2022/12/31 05:53:47;;;;;;;2.97;0.63;;;;;;;;;;5032593;28;20022;-64
2022/12/31 05:56:12;;;;;;;1.27;0.50;;;;;;;;;;5032485;28;20052;-65
2022/12/31 05:58:38;;;;;;;1.17;0.40;;;;;;;;;;5032483;28;20017;-65
2022/12/31 06:01:03;;;;;;;0.88;0.30;;;;;;;;;;5032377;28;20468;-65
2022/12/31 06:03:28;;;;;;;0.70;0.20;;;;;;;;;;5032348;28;20014;-65
2022/12/31 06:05:53;;;;;;;0.47;0.10;;;;;;;;;;5032758;28;20022;-65
2022/12/31 06:08:18;;;;;;;0.40;0.20;;;;;;;;;;5032471;28;20026;-66
2022/12/31 06:10:43;;;;;;;0.17;0.00;;;;;;;;;;5032393;28;20025;-65
2022/12/31 06:13:08;;;;;;;0.00;0.00;;;;;;;;;;5031739;28;20048;-65
2022/12/31 06:15:38;;;;;;;0.10;0.10;;;;;;;;;;5032182;28;20112;-65
2022/12/31 06:18:03;;;;;;;0.20;0.10;;;;;;;;;;5032056;28;20022;-65
2022/12/31 06:20:28;;;;;;;1.10;0.20;;;;;;;;;;5032184;28;20025;-65
2022/12/31 06:22:53;;;;;;;0.00;0.00;;;;;;;;;;5032173;28;20480;-65
2022/12/31 06:25:19;;;;;;;0.60;0.10;;;;;;;;;;5032256;28;20017;-64
2022/12/31 06:27:44;;;;;;;0.20;0.10;;;;;;;;;;5031801;28;20087;-65
2022/12/31 06:30:09;;;;;;;1.67;0.20;;;;;;;;;;5031577;28;20440;-65
2022/12/31 06:32:34;;;;;;;0.52;0.20;;;;;;;;;;5031659;28;20373;-65
2022/12/31 06:35:00;;;;;;;0.00;0.00;;;;;;;;;;5031181;28;20472;-64
2022/12/31 06:37:25;;;;;;;0.95;0.17;;;;;;;;;;5032112;28;20100;-64
2022/12/31 06:39:50;;;;;;;0.30;0.10;;;;;;;;;;5032023;28;20018;-65
2022/12/31 06:42:15;;;;;;;0.85;0.10;;;;;;;;;;5031272;28;20084;-65
2022/12/31 06:44:40;;;;;;;0.45;0.10;;;;;;;;;;5031511;28;20105;-65
2022/12/31 06:47:05;;;;;;;1.10;0.28;;;;;;;;;;5031628;28;20029;-64
2022/12/31 06:49:30;;;;;;;0.27;0.10;;;;;;;;;;5031550;28;20017;-65
2022/12/31 06:51:56;;;;;;;1.05;0.10;;;;;;;;;;5031536;28;20051;-64
2022/12/31 06:54:21;;;;;;;1.05;0.20;;;;;;;;;;5031422;28;20060;-64
2022/12/31 06:56:46;;;;;;;0.25;0.10;;;;;;;;;;5031727;28;20468;-64
2022/12/31 06:59:16;;;;;;;1.13;0.30;;;;;;;;;;5030985;28;20029;-64
2022/12/31 07:02:00;;;;;;;0.30;0.10;;;;;;;;;;5031337;28;20017;-64
2022/12/31 07:04:42;;;;;;;0.43;0.20;;;;;;;;;;5030408;28;20021;-65
2022/12/31 07:07:24;;;;;;;1.02;0.20;;;;;;;;;;5031188;28;20033;-65
2022/12/31 07:09:56;;;;;;;2.05;0.20;;;;;;;;;;5030918;28;20029;-63
2022/12/31 07:12:21;;;;;;;1.00;0.28;;;;;;;;;;5030967;28;20120;-65
2022/12/31 07:14:58;;;;;;;0.60;0.20;;;;;;;;;;5031334;28;20096;-65
2022/12/31 07:17:36;;;;;;;0.68;0.20;;;;;;;;;;5030744;28;20480;-66
2022/12/31 07:20:01;;;;;;;;;;;;;;;;;;5031492;28;20108;-64
2022/12/31 07:22:27;;;;;;;1.40;0.30;;;;;;;;;;5031053;28;19918;-64
2022/12/31 07:24:52;;;;;;;0.85;0.30;;;;;;;;;;5030690;28;20021;-65
2022/12/31 07:27:26;;;;;;;1.07;0.40;;;;;;;;;;5030740;28;20023;-65
2022/12/31 07:30:00;;;;;;;0.90;0.35;;;;;;;;;;5031032;28;20029;-65
2022/12/31 07:32:28;;;;;;;0.68;0.30;;;;;;;;;;5030717;28;20473;-64
2022/12/31 07:35:12;;;;;;;1.80;0.30;;;;;;;;;;5030558;28;20036;-66
2022/12/31 07:37:37;;;;;;;;;;;;;;;;;;5031613;28;20029;-65
2022/12/31 07:40:11;;;;;;;1.13;0.40;;;;;;;;;;5030658;28;19993;-66
2022/12/31 07:42:55;;;;;;;1.55;0.45;;;;;;;;;;5030680;28;20365;-65
2022/12/31 07:45:25;;;;;;;1.15;0.35;;;;;;;;;;5030228;28;20014;-65
2022/12/31 07:47:50;;;;;;;1.63;0.57;;;;;;;;;;5030744;28;20040;-64
2022/12/31 07:50:16;;;;;;;1.90;0.40;;;;;;;;;;5030711;28;20112;-64
2022/12/31 07:52:42;;;;;;;1.30;0.30;;;;;;;;;;5031089;28;20030;-63
2022/12/31 07:55:08;;;;;;;1.70;0.30;;;;;;;;;;5030795;28;20076;-65
2022/12/31 07:57:37;;;;;;;2.75;0.40;;;;;;;;;;5034636;28;20113;-65
2022/12/31 08:00:12;;;;;;;0.65;0.30;;;;;;;;;;5034598;28;20025;-65
2022/12/31 08:02:56;;;;;;;1.42;0.32;;;;;;;;;;5034715;28;20499;-64
2022/12/31 08:05:27;;;;;;;1.00;0.30;;;;;;;;;;5034142;28;20084;-65
2022/12/31 08:08:11;;;;;;;1.10;0.30;;;;;;;;;;5034842;28;20018;-65
2022/12/31 08:10:45;;;;;;;1.92;0.65;;;;;;;;;;5034667;28;20021;-64
2022/12/31 08:13:11;;;;;;;2.17;0.40;;;;;;;;;;5034031;28;20124;-65
2022/12/31 08:15:36;;;;;;;0.93;0.30;;;;;;;;;;5034682;28;20093;-65
2022/12/31 08:18:02;;;;;;;3.05;1.20;;;;;;;;;;5034313;28;20105;-65
2022/12/31 08:20:28;;;;;;;2.57;0.70;;;;;;;;;;5034076;28;20017;-65
2022/12/31 08:23:02;;;;;;;1.65;0.30;;;;;;;;;;5034153;28;20025;-65
2022/12/31 08:25:46;;;;;;;0.93;0.32;;;;;;;;;;5034266;28;20365;-63
2022/12/31 08:28:37;;;;;;;2.45;0.38;;;;;;;;;;5033958;28;20025;-64
2022/12/31 08:31:06;;;;;;;2.42;0.40;;;;;;;;;;5033965;28;20465;-65
2022/12/31 08:33:41;;;;;;;1.67;0.40;;;;;;;;;;5033872;28;20013;-66
2022/12/31 08:36:15;;;;;;;2.53;0.40;;;;;;;;;;5033916;28;20013;-64
2022/12/31 08:38:49;;;;;;;1.55;0.50;;;;;;;;;;5034354;28;20075;-65
2022/12/31 08:41:29;;;;;;;0.77;0.30;;;;;;;;;;5034008;28;20435;-66
2022/12/31 08:44:14;;;;;;;2.25;0.50;;;;;;;;;;5033716;28;20045;-65
2022/12/31 08:46:48;;;;;;;0.77;0.20;;;;;;;;;;5033875;28;20036;-64
2022/12/31 08:49:13;;;;;;;1.23;0.40;;;;;;;;;;5033995;28;20022;-64
2022/12/31 08:51:39;;;;;;;3.28;0.60;;;;;;;;;;5033779;28;20056;-64
2022/12/31 08:54:04;;;;;;;1.70;0.40;;;;;;;;;;5033518;28;20087;-64
2022/12/31 08:56:35;;;;;;;1.53;0.50;;;;;;;;;;5033041;28;20365;-65
2022/12/31 08:59:19;;;;;;;1.13;0.40;;;;;;;;;;5033926;28;20510;-66
2022/12/31 09:02:03;;;;;;;2.10;0.50;;;;;;;;;;5033961;28;20021;-66
2022/12/31 09:04:28;;;;;;;;;;;;;;;;;;5033758;28;20147;-64
2022/12/31 09:06:57;;;;;;;1.58;0.45;;;;;;;;;;5033640;28;19999;-64
2022/12/31 09:09:41;;;;;;;1.45;0.50;;;;;;;;;;5033585;28;20057;-65
2022/12/31 09:12:15;;;;;;;1.52;0.50;;;;;;;;;;5033127;28;20017;-65
2022/12/31 09:14:42;;;;;;;1.27;0.50;;;;;;;;;;5033010;28;20036;-65
2022/12/31 09:17:23;;;;;;;2.47;0.60;;;;;;;;;;5032872;28;20511;-65
2022/12/31 09:19:48;;;;;;;1.98;0.50;;;;;;;;;;5033231;28;20025;-65
2022/12/31 09:22:14;;;;;;;2.87;0.40;;;;;;;;;;5033160;28;20044;-65
2022/12/31 09:24:39;;;;;;;0.63;0.37;;;;;;;;;;5033389;28;20096;-64
2022/12/31 09:27:07;;;;;;;2.37;0.70;;;;;;;;;;5032854;28;20029;-66
2022/12/31 09:29:41;;;;;;;1.40;0.43;;;;;;;;;;5033206;28;20030;-65
2022/12/31 09:32:22;;;;;;;3.40;0.68;;;;;;;;;;5033276;28;20033;-66
2022/12/31 09:34:58;;;;;;;1.52;0.30;;;;;;;;;;5032703;28;20018;-64
2022/12/31 09:37:34;;;;;;;1.98;0.40;;;;;;;;;;5032919;28;20029;-65
2022/12/31 09:40:09;;;;;;;2.00;0.40;;;;;;;;;;5032955;28;20056;-65
2022/12/31 09:42:40;;;;;;;1.70;0.50;;;;;;;;;;5033081;28;20068;-64
2022/12/31 09:45:08;;;;;;;2.70;0.70;;;;;;;;;;5032620;28;20554;-65
2022/12/31 09:47:42;;;;;;;1.95;0.40;;;;;;;;;;5032970;28;20044;-66
2022/12/31 09:50:33;;;;;;;2.33;0.50;;;;;;;;;;5032731;28;20064;-64
2022/12/31 09:53:02;;;;;;;1.50;0.50;;;;;;;;;;5024280;28;20037;-65
2022/12/31 09:55:34;;;;;;;1.27;0.30;;;;;;;;;;5032386;28;20075;-65
2022/12/31 09:58:12;;;;;;;2.38;0.60;;;;;;;;;;5032496;28;20544;-64
2022/12/31 10:00:40;;;;;;;1.42;0.43;;;;;;;;;;5032453;28;20022;-64
2022/12/31 10:03:23;;;;;;;2.00;0.57;;;;;;;;;;5032151;28;20017;-64
2022/12/31 10:06:07;;;;;;;1.42;0.40;;;;;;;;;;5032307;28;20382;-64
2022/12/31 10:08:32;;;;;;;;;;;;;;;;;;5033063;28;20025;-65
2022/12/31 10:11:01;;;;;;;3.10;0.45;;;;;;;;;;5031994;28;19995;-65
2022/12/31 10:13:42;;;;;;;1.20;0.40;;;;;;;;;;5031875;28;20052;-64
2022/12/31 10:16:26;;;;;;;1.40;0.50;;;;;;;;;;5031785;28;20492;-64
2022/12/31 10:18:51;;;;;;;;;;;;;;;;;;5032184;28;20026;-64
2022/12/31 10:21:22;;;;;;;1.02;0.38;;;;;;;;;;5031879;28;19905;-65
2022/12/31 10:23:58;;;;;;;1.92;0.60;;;;;;;;;;5032310;28;20416;-65
2022/12/31 10:26:30;;;;;;;4.05;0.82;;;;;;;;;;5031933;28;20021;-65
2022/12/31 10:29:12;;;;;;;1.73;0.50;;;;;;;;;;5031933;28;20494;-65
2022/12/31 10:31:59;;;;;;;1.77;0.38;;;;;;;;;;5032291;28;20032;-65
2022/12/31 10:34:25;;;;;;;2.10;0.47;;;;;;;;;;5031883;28;20026;-66
2022/12/31 10:36:56;;;;;;;1.75;0.50;;;;;;;;;;5031253;28;20022;-65
2022/12/31 10:39:37;;;;;;;2.65;0.60;;;;;;;;;;5031705;28;20022;-64
2022/12/31 10:42:26;;;;;;;1.13;0.35;;;;;;;;;;5031386;28;20021;-65
2022/12/31 10:45:03;;;;;;;3.38;0.50;;;;;;;;;;5032026;28;20009;-64
2022/12/31 10:47:47;;;;;;;2.22;0.70;;;;;;;;;;5031615;28;20112;-65
2022/12/31 10:50:12;;;;;;;;;;;;;;;;;;5032016;28;20021;-66
2022/12/31 10:52:47;;;;;;;1.98;0.50;;;;;;;;;;5031564;28;19905;-66
2022/12/31 10:55:36;;;;;;;1.33;0.40;;;;;;;;;;5031730;28;20091;-66
2022/12/31 10:58:09;;;;;;;1.90;0.63;;;;;;;;;;5031277;28;20110;-65
2022/12/31 11:00:45;;;;;;;1.23;0.47;;;;;;;;;;5031590;28;20050;-66
2022/12/31 11:03:25;;;;;;;3.25;0.57;;;;;;;;;;5030965;28;20021;-64
2022/12/31 11:06:12;;;;;;;2.00;0.60;;;;;;;;;;5031268;28;20025;-65
2022/12/31 11:08:37;;;;;;;2.45;0.60;;;;;;;;;;5031401;28;20083;-65
2022/12/31 11:11:05;;;;;;;1.25;0.40;;;;;;;;;;5031206;28;20021;-66
2022/12/31 11:13:49;;;;;;;1.77;0.50;;;;;;;;;;5030859;28;20076;-65
2022/12/31 11:16:14;;;;;;;;;;;;;;;;;;5031265;28;20112;-64
2022/12/31 11:18:46;;;;;;;2.40;0.60;;;;;;;;;;5031550;28;20003;-65
2022/12/31 11:21:11;;;;;;;;;;;;;;;;;;5031563;28;20167;-65
2022/12/31 11:23:36;;;;;;;1.38;0.43;;;;;;;;;;5031320;28;19992;-65
2022/12/31 11:26:07;;;;;;;2.87;0.50;;;;;;;;;;5030976;28;20017;-65
2022/12/31 11:28:51;;;;;;;1.95;0.50;;;;;;;;;;5031201;28;20026;-65
2022/12/31 11:31:16;;;;;;;;;;;;;;;;;;5030733;28;20021;-64
2022/12/31 11:33:53;;;;;;;1.23;0.45;;;;;;;;;;5030996;28;19905;-65
2022/12/31 11:36:28;;;;;;;1.30;0.45;;;;;;;;;;5030555;28;20041;-65
2022/12/31 11:39:19;;;;;;;2.25;0.60;;;;;;;;;;5030925;28;20523;-65
2022/12/31 11:41:49;;;;;;;2.05;0.60;;;;;;;;;;5031024;28;20100;-65
2022/12/31 11:44:22;;;;;;;3.65;0.80;;;;;;;;;;5030648;28;20503;-66
2022/12/31 11:46:57;;;;;;;1.65;0.40;;;;;;;;;;5029409;28;20224;-65
2022/12/31 11:49:22;;;;;;;2.10;0.60;;;;;;;;;;5030595;28;20025;-66
2022/12/31 11:52:14;;;;;;;4.30;0.82;;;;;;;;;;5030812;28;20082;-65
2022/12/31 11:54:48;;;;;;;1.85;0.57;;;;;;;;;;5030955;28;20057;-64
2022/12/31 11:57:19;;;;;;;2.42;0.55;;;;;;;;;;5030100;28;20461;-66
2022/12/31 11:59:45;;;;;;;3.72;0.70;;;;;;;;;;5030708;28;20377;-64
2022/12/31 12:02:10;;;;;;;2.47;0.57;;;;;;;;;;5030456;28;20026;-65
2022/12/31 12:04:35;;;;;;;1.55;0.50;;;;;;;;;;5031177;28;20025;-65
2022/12/31 12:07:00;;;;;;;1.73;0.43;;;;;;;;;;5030597;28;20021;-66
2022/12/31 12:09:27;;;;;;;3.17;0.63;;;;;;;;;;5030493;28;20033;-66
2022/12/31 12:11:59;;;;;;;2.72;0.63;;;;;;;;;;5030377;28;20029;-64
2022/12/31 12:14:24;;;;;;;;;;;;;;;;;;5030622;28;20136;-64
2022/12/31 12:16:54;;;;;;;1.92;0.50;;;;;;;;;;5030621;28;20011;-66
2022/12/31 12:19:19;;;;;;;1.60;0.40;;;;;;;;;;5030507;28;20017;-65
2022/12/31 12:21:46;;;;;;;2.73;0.70;;;;;;;;;;5030719;28;20029;-64
2022/12/31 12:24:18;;;;;;;1.75;0.50;;;;;;;;;;5030136;28;20083;-65
2022/12/31 12:26:44;;;;;;;1.85;0.57;;;;;;;;;;5030295;28;20045;-65
2022/12/31 12:29:09;;;;;;;2.45;0.50;;;;;;;;;;5030215;28;20025;-65
2022/12/31 12:31:34;;;;;;;2.43;0.60;;;;;;;;;;5030920;28;20026;-65
2022/12/31 12:34:00;;;;;;;1.88;0.50;;;;;;;;;;5030686;28;20100;-65
2022/12/31 12:36:25;;;;;;;2.43;0.40;;;;;;;;;;5030228;28;20040;-65
2022/12/31 12:39:03;;;;;;;1.57;0.50;;;;;;;;;;5030198;28;20100;-64
2022/12/31 12:41:28;;;;;;;1.80;0.45;;;;;;;;;;5030937;28;20021;-64
2022/12/31 12:44:07;;;;;;;1.77;0.50;;;;;;;;;;5034128;28;20526;-65
2022/12/31 12:46:48;;;;;;;2.85;0.50;;;;;;;;;;5033907;28;20774;-66
2022/12/31 12:49:28;;;;;;;1.42;0.45;;;;;;;;;;5033688;28;20392;-65
2022/12/31 12:52:08;;;;;;;1.88;0.60;;;;;;;;;;5033981;28;20025;-64
2022/12/31 12:54:42;;;;;;;1.48;0.60;;;;;;;;;;5033904;28;20083;-65
2022/12/31 12:57:07;;;;;;;1.38;0.40;;;;;;;;;;5033416;28;20071;-65
2022/12/31 12:59:35;;;;;;;3.13;0.60;;;;;;;;;;5033706;28;20041;-64
2022/12/31 13:02:21;;;;;;;1.75;0.60;;;;;;;;;;5033452;28;20472;-67
2022/12/31 13:04:53;;;;;;;1.73;0.57;;;;;;;;;;5033367;28;20546;-67
2022/12/31 13:07:34;;;;;;;0.93;0.40;;;;;;;;;;5032907;28;20112;-65
2022/12/31 13:10:04;;;;;;;2.08;0.60;;;;;;;;;;5033383;28;20029;-67
2022/12/31 13:12:37;;;;;;;5.05;0.80;;;;;;;;;;5032943;28;20053;-64
2022/12/31 13:15:17;;;;;;;2.08;0.60;;;;;;;;;;5033628;28;20029;-64
2022/12/31 13:17:42;;;;;;;3.72;0.60;;;;;;;;;;5033483;28;20036;-64
2022/12/31 13:20:13;;;;;;;2.85;0.52;;;;;;;;;;5033171;28;20025;-65
2022/12/31 13:22:42;;;;;;;2.78;0.60;;;;;;;;;;5033101;28;20120;-65
2022/12/31 13:25:20;;;;;;;2.92;0.52;;;;;;;;;;5033107;28;20029;-64
2022/12/31 13:27:49;;;;;;;3.65;0.70;;;;;;;;;;5032997;28;20033;-65
2022/12/31 13:30:17;;;;;;;2.85;0.55;;;;;;;;;;5033322;28;20071;-65
2022/12/31 13:32:44;;;;;;;1.90;0.55;;;;;;;;;;5032799;28;20032;-65
2022/12/31 13:35:22;;;;;;;2.45;0.50;;;;;;;;;;5033008;28;20116;-65
2022/12/31 13:37:48;;;;;;;1.85;0.50;;;;;;;;;;5033156;28;20049;-65
2022/12/31 13:40:39;;;;;;;3.03;0.85;;;;;;;;;;5032841;28;20067;-65
2022/12/31 13:43:07;;;;;;;4.15;0.70;;;;;;;;;;5024373;28;20053;-64
2022/12/31 13:45:37;;;;;;;5.45;2.03;;;;;;;;;;5032617;28;20017;-64
2022/12/31 13:48:08;;;;;;;2.95;0.95;;;;;;;;;;5032649;28;20101;-64
2022/12/31 13:50:52;;;;;;;1.48;0.65;;;;;;;;;;5033135;28;20051;-64
2022/12/31 13:53:25;;;;;;;2.00;0.50;;;;;;;;;;5032042;28;20030;-63
2022/12/31 13:55:56;;;;;;;1.95;0.60;;;;;;;;;;5032449;28;20017;-64
2022/12/31 13:58:43;;;;;;;2.10;0.73;;;;;;;;;;5032441;28;20017;-64
2022/12/31 14:01:21;;;;;;;2.60;0.60;;;;;;;;;;5032432;28;20013;-64
2022/12/31 14:03:51;;;;;;;2.17;0.70;;;;;;;;;;5032257;28;20010;-64
2022/12/31 14:06:24;;;;;;;2.00;0.65;;;;;;;;;;5032574;28;20033;-63
2022/12/31 14:08:50;;;;;;;2.08;0.57;;;;;;;;;;5032445;28;20443;-64
2022/12/31 14:11:15;;;;;;;;;;;;;;;;;;5033100;28;20021;-65
2022/12/31 14:13:47;;;;;;;3.38;0.52;;;;;;;;;;5032141;28;19912;-65
2022/12/31 14:16:31;;;;;;;1.60;0.57;;;;;;;;;;5031796;28;20048;-65
2022/12/31 14:19:02;;;;;;;2.33;0.70;;;;;;;;;;5032151;28;20013;-65
2022/12/31 14:21:31;;;;;;;1.80;0.57;;;;;;;;;;5031908;28;20084;-65
2022/12/31 14:24:11;;;;;;;1.70;0.60;;;;;;;;;;5032174;28;20067;-65
2022/12/31 14:26:39;;;;;;;1.90;0.70;;;;;;;;;;5032105;28;20021;-65
2022/12/31 14:29:07;;;;;;;2.60;0.70;;;;;;;;;;5032433;28;20097;-65
2022/12/31 14:31:32;;;;;;;3.80;0.80;;;;;;;;;;5032079;28;20075;-65
2022/12/31 14:34:05;;;;;;;2.97;0.70;;;;;;;;;;5031957;28;20022;-65
2022/12/31 14:36:33;;;;;;;2.28;0.60;;;;;;;;;;5031620;28;20020;-65
2022/12/31 14:39:16;;;;;;;1.63;0.60;;;;;;;;;;5031677;28;20117;-65
2022/12/31 14:42:02;;;;;;;3.05;0.70;;;;;;;;;;5031712;28;20053;-64
2022/12/31 14:44:33;;;;;;;2.88;0.75;;;;;;;;;;5031479;28;20025;-64
2022/12/31 14:47:10;;;;;;;2.92;0.85;;;;;;;;;;5031777;28;20025;-65
2022/12/31 14:49:43;;;;;;;2.05;0.70;;;;;;;;;;5031820;28;20013;-65
2022/12/31 14:52:19;;;;;;;3.55;0.80;;;;;;;;;;5031547;28;20022;-62
2022/12/31 14:54:44;;;;;;;2.05;0.60;;;;;;;;;;5031837;28;20021;-63
2022/12/31 14:57:15;;;;;;;2.88;0.90;;;;;;;;;;5031005;28;20078;-64
2022/12/31 14:59:49;;;;;;;2.20;0.70;;;;;;;;;;5031437;28;20056;-64
2022/12/31 15:02:33;;;;;;;3.00;0.70;;;;;;;;;;5031218;28;20052;-63
2022/12/31 15:05:03;;;;;;;2.38;0.90;;;;;;;;;;5031303;28;20063;-65
2022/12/31 15:07:48;;;;;;;3.05;1.02;;;;;;;;;;5031040;28;20029;-64
2022/12/31 15:10:21;;;;;;;2.80;0.73;;;;;;;;;;5030739;28;20033;-64
2022/12/31 15:12:55;;;;;;;1.67;0.70;;;;;;;;;;5030616;28;20037;-64
2022/12/31 15:15:34;;;;;;;6.07;0.80;;;;;;;;;;5030957;28;20079;-64
2022/12/31 15:18:08;;;;;;;3.45;1.00;;;;;;;;;;5031033;28;20036;-63